Weather at Cornwall Regional Airport

Public forecast

Using degrees Celsius for public forecast. Weather courtesy of forecast.io.

Closest aviation weather report (METAR) to Cornwall Regional Airport

Closest report is Massena International Richards Field, 15.2 nm (28.2 km) SW. Retrieved 2020/10/31 15:53 UTC (33 minutes ago):

KMSS 311553Z AUTO 23005KT 10SM CLR 03/M08 A3050 RMK AO2 SLP333 T00331078

Closest aviation forecast (TAF) to Cornwall Regional Airport

Closest forecast is Massena International Richards Field, 15.2 nm (28.2 km) SW. Retrieved 2020/10/31 12:33 UTC (4 hours ago):

TAF KMSS 311130Z 3112/0112 00000KT P6SM SKC FM311300 23005KT P6SM SKC FM010500 19008KT P6SM SKC WS020/21035KT